sensor_id;sensor_type;location;lat;lon;timestamp;P1;durP1;ratioP1;P2;durP2;ratioP2
44694;SDS011;32845;59.422;17.930;2022-09-23T00:04:30;3.40;;;1.20;;
44694;SDS011;32845;59.422;17.930;2022-09-23T00:09:00;1.83;;;0.82;;
44694;SDS011;32845;59.422;17.930;2022-09-23T00:13:32;4.18;;;1.02;;
44694;SDS011;32845;59.422;17.930;2022-09-23T00:18:14;1.88;;;0.77;;
44694;SDS011;32845;59.422;17.930;2022-09-23T00:22:44;3.40;;;0.80;;
44694;SDS011;32845;59.422;17.930;2022-09-23T00:27:20;1.60;;;0.80;;
44694;SDS011;32845;59.422;17.930;2022-09-23T00:31:51;5.35;;;1.05;;
44694;SDS011;32845;59.422;17.930;2022-09-23T00:36:31;3.00;;;0.90;;
44694;SDS011;32845;59.422;17.930;2022-09-23T00:41:02;4.90;;;0.80;;
44694;SDS011;32845;59.422;17.930;2022-09-23T00:45:33;3.85;;;1.10;;
44694;SDS011;32845;59.422;17.930;2022-09-23T00:54:44;3.30;;;1.00;;
44694;SDS011;32845;59.422;17.930;2022-09-23T00:59:17;2.40;;;1.10;;
44694;SDS011;32845;59.422;17.930;2022-09-23T01:03:48;6.25;;;0.80;;
44694;SDS011;32845;59.422;17.930;2022-09-23T01:08:20;5.80;;;1.20;;
44694;SDS011;32845;59.422;17.930;2022-09-23T01:27:57;1.77;;;0.90;;
44694;SDS011;32845;59.422;17.930;2022-09-23T01:42:06;1.35;;;0.80;;
44694;SDS011;32845;59.422;17.930;2022-09-23T01:46:55;3.45;;;1.08;;
44694;SDS011;32845;59.422;17.930;2022-09-23T01:51:37;3.13;;;1.00;;
44694;SDS011;32845;59.422;17.930;2022-09-23T01:56:33;7.63;;;1.15;;
44694;SDS011;32845;59.422;17.930;2022-09-23T02:01:10;3.65;;;1.25;;
44694;SDS011;32845;59.422;17.930;2022-09-23T02:05:49;2.08;;;1.00;;
44694;SDS011;32845;59.422;17.930;2022-09-23T02:10:33;2.47;;;0.88;;
44694;SDS011;32845;59.422;17.930;2022-09-23T02:15:12;5.13;;;1.30;;
44694;SDS011;32845;59.422;17.930;2022-09-23T02:19:51;6.00;;;1.30;;
44694;SDS011;32845;59.422;17.930;2022-09-23T02:24:26;5.60;;;1.17;;
44694;SDS011;32845;59.422;17.930;2022-09-23T02:29:03;3.85;;;1.08;;
44694;SDS011;32845;59.422;17.930;2022-09-23T02:33:40;5.83;;;1.10;;
44694;SDS011;32845;59.422;17.930;2022-09-23T02:43:04;4.00;;;1.48;;
44694;SDS011;32845;59.422;17.930;2022-09-23T02:47:41;3.10;;;1.03;;
44694;SDS011;32845;59.422;17.930;2022-09-23T02:52:14;6.93;;;1.35;;
44694;SDS011;32845;59.422;17.930;2022-09-23T02:56:47;4.40;;;0.98;;
44694;SDS011;32845;59.422;17.930;2022-09-23T03:05:55;3.28;;;1.08;;
44694;SDS011;32845;59.422;17.930;2022-09-23T03:24:51;2.28;;;0.88;;
44694;SDS011;32845;59.422;17.930;2022-09-23T03:29:27;3.83;;;1.20;;
44694;SDS011;32845;59.422;17.930;2022-09-23T03:33:59;7.70;;;1.15;;
44694;SDS011;32845;59.422;17.930;2022-09-23T03:38:35;5.15;;;1.10;;
44694;SDS011;32845;59.422;17.930;2022-09-23T03:43:12;2.78;;;1.10;;
44694;SDS011;32845;59.422;17.930;2022-09-23T03:47:43;3.10;;;1.40;;
44694;SDS011;32845;59.422;17.930;2022-09-23T03:52:15;3.60;;;1.10;;
44694;SDS011;32845;59.422;17.930;2022-09-23T03:56:52;2.50;;;1.17;;
44694;SDS011;32845;59.422;17.930;2022-09-23T04:01:26;4.70;;;1.13;;
44694;SDS011;32845;59.422;17.930;2022-09-23T04:05:57;3.05;;;1.13;;
44694;SDS011;32845;59.422;17.930;2022-09-23T04:10:28;4.78;;;1.38;;
44694;SDS011;32845;59.422;17.930;2022-09-23T04:14:58;4.22;;;1.58;;
44694;SDS011;32845;59.422;17.930;2022-09-23T04:19:29;6.28;;;1.42;;
44694;SDS011;32845;59.422;17.930;2022-09-23T04:24:00;4.13;;;1.38;;
44694;SDS011;32845;59.422;17.930;2022-09-23T04:28:36;4.80;;;1.30;;
44694;SDS011;32845;59.422;17.930;2022-09-23T04:33:06;5.80;;;1.27;;
44694;SDS011;32845;59.422;17.930;2022-09-23T04:37:37;4.43;;;1.30;;
44694;SDS011;32845;59.422;17.930;2022-09-23T04:42:08;4.72;;;1.50;;
44694;SDS011;32845;59.422;17.930;2022-09-23T04:46:40;5.97;;;1.80;;
44694;SDS011;32845;59.422;17.930;2022-09-23T04:51:13;5.35;;;1.70;;
44694;SDS011;32845;59.422;17.930;2022-09-23T04:55:48;6.38;;;1.98;;
44694;SDS011;32845;59.422;17.930;2022-09-23T05:00:21;4.35;;;1.98;;
44694;SDS011;32845;59.422;17.930;2022-09-23T05:04:52;6.82;;;1.70;;
44694;SDS011;32845;59.422;17.930;2022-09-23T05:09:24;6.57;;;1.55;;
44694;SDS011;32845;59.422;17.930;2022-09-23T05:13:55;5.03;;;1.63;;
44694;SDS011;32845;59.422;17.930;2022-09-23T05:18:26;3.58;;;1.50;;
44694;SDS011;32845;59.422;17.930;2022-09-23T05:22:59;4.53;;;1.60;;
44694;SDS011;32845;59.422;17.930;2022-09-23T05:27:30;5.13;;;1.85;;
44694;SDS011;32845;59.422;17.930;2022-09-23T05:32:00;14.25;;;2.05;;
44694;SDS011;32845;59.422;17.930;2022-09-23T05:36:32;11.73;;;1.88;;
44694;SDS011;32845;59.422;17.930;2022-09-23T05:41:05;4.40;;;1.67;;
44694;SDS011;32845;59.422;17.930;2022-09-23T05:45:38;2.92;;;1.58;;
44694;SDS011;32845;59.422;17.930;2022-09-23T05:50:08;4.68;;;1.65;;
44694;SDS011;32845;59.422;17.930;2022-09-23T05:54:39;5.72;;;1.50;;
44694;SDS011;32845;59.422;17.930;2022-09-23T05:59:10;4.57;;;1.52;;
44694;SDS011;32845;59.422;17.930;2022-09-23T06:03:41;3.92;;;1.70;;
44694;SDS011;32845;59.422;17.930;2022-09-23T06:08:16;14.05;;;2.40;;
44694;SDS011;32845;59.422;17.930;2022-09-23T06:12:46;4.10;;;1.42;;
44694;SDS011;32845;59.422;17.930;2022-09-23T06:17:17;18.55;;;2.33;;
44694;SDS011;32845;59.422;17.930;2022-09-23T06:21:48;3.15;;;1.90;;
44694;SDS011;32845;59.422;17.930;2022-09-23T06:26:18;16.67;;;1.90;;
44694;SDS011;32845;59.422;17.930;2022-09-23T06:30:49;19.10;;;2.22;;
44694;SDS011;32845;59.422;17.930;2022-09-23T06:35:27;11.07;;;1.50;;
44694;SDS011;32845;59.422;17.930;2022-09-23T06:40:03;4.78;;;1.50;;
44694;SDS011;32845;59.422;17.930;2022-09-23T06:44:34;3.10;;;1.42;;
44694;SDS011;32845;59.422;17.930;2022-09-23T06:49:04;5.72;;;1.42;;
44694;SDS011;32845;59.422;17.930;2022-09-23T06:53:35;10.40;;;2.60;;
44694;SDS011;32845;59.422;17.930;2022-09-23T06:58:06;14.85;;;1.95;;
44694;SDS011;32845;59.422;17.930;2022-09-23T07:02:39;6.25;;;1.67;;
44694;SDS011;32845;59.422;17.930;2022-09-23T07:07:11;4.03;;;1.40;;
44694;SDS011;32845;59.422;17.930;2022-09-23T07:11:43;9.27;;;2.13;;
44694;SDS011;32845;59.422;17.930;2022-09-23T07:16:16;8.23;;;1.30;;
44694;SDS011;32845;59.422;17.930;2022-09-23T07:20:47;8.98;;;1.50;;
44694;SDS011;32845;59.422;17.930;2022-09-23T07:25:18;28.08;;;3.88;;
44694;SDS011;32845;59.422;17.930;2022-09-23T07:29:49;13.20;;;1.80;;
44694;SDS011;32845;59.422;17.930;2022-09-23T07:34:21;4.63;;;1.80;;
44694;SDS011;32845;59.422;17.930;2022-09-23T07:38:57;5.00;;;2.15;;
44694;SDS011;32845;59.422;17.930;2022-09-23T07:43:32;5.65;;;1.70;;
44694;SDS011;32845;59.422;17.930;2022-09-23T07:48:03;6.38;;;1.58;;
44694;SDS011;32845;59.422;17.930;2022-09-23T07:52:34;7.25;;;1.50;;
44694;SDS011;32845;59.422;17.930;2022-09-23T07:57:11;12.13;;;2.65;;
44694;SDS011;32845;59.422;17.930;2022-09-23T08:01:43;14.65;;;2.00;;
44694;SDS011;32845;59.422;17.930;2022-09-23T08:06:16;13.77;;;1.80;;
44694;SDS011;32845;59.422;17.930;2022-09-23T08:10:47;5.43;;;2.03;;
44694;SDS011;32845;59.422;17.930;2022-09-23T08:15:18;5.80;;;1.77;;
44694;SDS011;32845;59.422;17.930;2022-09-23T08:19:48;10.77;;;2.05;;
44694;SDS011;32845;59.422;17.930;2022-09-23T08:24:20;25.65;;;3.08;;
44694;SDS011;32845;59.422;17.930;2022-09-23T08:28:52;6.05;;;1.80;;
44694;SDS011;32845;59.422;17.930;2022-09-23T08:33:23;5.95;;;1.38;;
44694;SDS011;32845;59.422;17.930;2022-09-23T08:37:54;2.65;;;1.17;;
44694;SDS011;32845;59.422;17.930;2022-09-23T08:42:27;5.47;;;1.25;;
44694;SDS011;32845;59.422;17.930;2022-09-23T08:47:08;3.22;;;1.27;;
44694;SDS011;32845;59.422;17.930;2022-09-23T08:51:45;5.85;;;1.30;;
44694;SDS011;32845;59.422;17.930;2022-09-23T08:56:19;6.85;;;1.15;;
44694;SDS011;32845;59.422;17.930;2022-09-23T09:05:23;4.70;;;1.00;;
44694;SDS011;32845;59.422;17.930;2022-09-23T09:14:40;3.42;;;0.98;;
44694;SDS011;32845;59.422;17.930;2022-09-23T09:19:16;6.25;;;1.30;;
44694;SDS011;32845;59.422;17.930;2022-09-23T09:24:01;1.70;;;0.93;;
44694;SDS011;32845;59.422;17.930;2022-09-23T09:28:46;7.97;;;1.65;;
44694;SDS011;32845;59.422;17.930;2022-09-23T09:33:30;2.92;;;1.17;;
44694;SDS011;32845;59.422;17.930;2022-09-23T09:38:13;4.32;;;1.00;;
44694;SDS011;32845;59.422;17.930;2022-09-23T09:42:45;3.92;;;0.98;;
44694;SDS011;32845;59.422;17.930;2022-09-23T09:52:18;6.05;;;1.23;;
44694;SDS011;32845;59.422;17.930;2022-09-23T09:56:51;5.60;;;1.40;;
44694;SDS011;32845;59.422;17.930;2022-09-23T10:01:27;7.85;;;1.30;;
44694;SDS011;32845;59.422;17.930;2022-09-23T10:06:12;2.65;;;0.88;;
44694;SDS011;32845;59.422;17.930;2022-09-23T10:10:51;5.35;;;1.00;;
44694;SDS011;32845;59.422;17.930;2022-09-23T10:15:29;6.72;;;1.10;;
44694;SDS011;32845;59.422;17.930;2022-09-23T10:20:06;8.15;;;1.25;;
44694;SDS011;32845;59.422;17.930;2022-09-23T10:24:38;3.42;;;0.93;;
44694;SDS011;32845;59.422;17.930;2022-09-23T10:29:23;8.88;;;1.50;;
44694;SDS011;32845;59.422;17.930;2022-09-23T10:33:56;4.03;;;1.27;;
44694;SDS011;32845;59.422;17.930;2022-09-23T10:39:10;6.70;;;0.90;;
44694;SDS011;32845;59.422;17.930;2022-09-23T10:44:08;3.38;;;1.00;;
44694;SDS011;32845;59.422;17.930;2022-09-23T10:54:00;4.72;;;1.05;;
44694;SDS011;32845;59.422;17.930;2022-09-23T11:04:06;2.07;;;0.70;;
44694;SDS011;32845;59.422;17.930;2022-09-23T11:13:39;4.95;;;1.02;;
44694;SDS011;32845;59.422;17.930;2022-09-23T11:37:44;2.28;;;0.55;;
44694;SDS011;32845;59.422;17.930;2022-09-23T11:42:28;3.97;;;0.63;;
44694;SDS011;32845;59.422;17.930;2022-09-23T11:56:42;3.92;;;0.98;;
44694;SDS011;32845;59.422;17.930;2022-09-23T12:01:18;1.30;;;0.45;;
44694;SDS011;32845;59.422;17.930;2022-09-23T12:11:18;2.83;;;0.77;;
44694;SDS011;32845;59.422;17.930;2022-09-23T12:20:39;7.82;;;1.27;;
44694;SDS011;32845;59.422;17.930;2022-09-23T12:30:13;1.25;;;0.60;;
44694;SDS011;32845;59.422;17.930;2022-09-23T12:34:49;3.58;;;0.60;;
44694;SDS011;32845;59.422;17.930;2022-09-23T12:39:29;4.90;;;0.50;;
44694;SDS011;32845;59.422;17.930;2022-09-23T12:48:56;5.20;;;0.75;;
44694;SDS011;32845;59.422;17.930;2022-09-23T12:59:09;4.85;;;0.60;;
44694;SDS011;32845;59.422;17.930;2022-09-23T13:03:12;3.75;;;0.95;;
44694;SDS011;32845;59.422;17.930;2022-09-23T13:08:22;2.72;;;0.50;;
44694;SDS011;32845;59.422;17.930;2022-09-23T13:12:54;4.10;;;0.57;;
44694;SDS011;32845;59.422;17.930;2022-09-23T13:17:35;6.53;;;0.60;;
44694;SDS011;32845;59.422;17.930;2022-09-23T13:22:07;3.55;;;0.70;;
44694;SDS011;32845;59.422;17.930;2022-09-23T13:26:44;3.15;;;0.80;;
44694;SDS011;32845;59.422;17.930;2022-09-23T13:31:15;9.85;;;1.20;;
44694;SDS011;32845;59.422;17.930;2022-09-23T13:35:48;3.55;;;0.73;;
44694;SDS011;32845;59.422;17.930;2022-09-23T13:40:22;4.75;;;0.77;;
44694;SDS011;32845;59.422;17.930;2022-09-23T13:44:57;1.25;;;0.47;;
44694;SDS011;32845;59.422;17.930;2022-09-23T13:49:34;4.38;;;0.93;;
44694;SDS011;32845;59.422;17.930;2022-09-23T13:54:22;2.95;;;0.80;;
44694;SDS011;32845;59.422;17.930;2022-09-23T14:03:54;1.48;;;0.60;;
44694;SDS011;32845;59.422;17.930;2022-09-23T14:08:24;4.75;;;0.70;;
44694;SDS011;32845;59.422;17.930;2022-09-23T14:12:56;5.10;;;1.08;;
44694;SDS011;32845;59.422;17.930;2022-09-23T14:17:28;2.97;;;0.77;;
44694;SDS011;32845;59.422;17.930;2022-09-23T14:21:59;3.55;;;0.47;;
44694;SDS011;32845;59.422;17.930;2022-09-23T14:26:35;5.47;;;0.82;;
44694;SDS011;32845;59.422;17.930;2022-09-23T14:31:06;7.70;;;0.90;;
44694;SDS011;32845;59.422;17.930;2022-09-23T14:35:38;5.72;;;0.98;;
44694;SDS011;32845;59.422;17.930;2022-09-23T14:40:19;4.28;;;0.85;;
44694;SDS011;32845;59.422;17.930;2022-09-23T14:44:51;3.20;;;1.17;;
44694;SDS011;32845;59.422;17.930;2022-09-23T14:49:22;1.65;;;0.77;;
44694;SDS011;32845;59.422;17.930;2022-09-23T14:53:53;3.45;;;0.90;;
44694;SDS011;32845;59.422;17.930;2022-09-23T14:58:25;2.75;;;0.73;;
44694;SDS011;32845;59.422;17.930;2022-09-23T15:03:00;7.35;;;0.77;;
44694;SDS011;32845;59.422;17.930;2022-09-23T15:07:34;3.75;;;0.95;;
44694;SDS011;32845;59.422;17.930;2022-09-23T15:12:11;1.42;;;0.60;;
44694;SDS011;32845;59.422;17.930;2022-09-23T15:16:45;2.55;;;0.40;;
44694;SDS011;32845;59.422;17.930;2022-09-23T15:21:17;2.83;;;0.95;;
44694;SDS011;32845;59.422;17.930;2022-09-23T15:25:50;2.42;;;0.70;;
44694;SDS011;32845;59.422;17.930;2022-09-23T15:30:22;1.98;;;0.82;;
44694;SDS011;32845;59.422;17.930;2022-09-23T15:34:53;1.23;;;0.60;;
44694;SDS011;32845;59.422;17.930;2022-09-23T15:39:24;1.08;;;0.52;;
44694;SDS011;32845;59.422;17.930;2022-09-23T15:43:55;2.38;;;0.90;;
44694;SDS011;32845;59.422;17.930;2022-09-23T15:48:26;2.97;;;0.82;;
44694;SDS011;32845;59.422;17.930;2022-09-23T15:53:01;1.38;;;0.70;;
44694;SDS011;32845;59.422;17.930;2022-09-23T15:57:33;3.63;;;1.10;;
44694;SDS011;32845;59.422;17.930;2022-09-23T16:02:05;5.00;;;0.93;;
44694;SDS011;32845;59.422;17.930;2022-09-23T16:06:49;3.00;;;0.82;;
44694;SDS011;32845;59.422;17.930;2022-09-23T16:11:23;2.58;;;0.93;;
44694;SDS011;32845;59.422;17.930;2022-09-23T16:15:58;5.20;;;1.03;;
44694;SDS011;32845;59.422;17.930;2022-09-23T16:20:29;1.23;;;0.73;;
44694;SDS011;32845;59.422;17.930;2022-09-23T16:25:00;6.63;;;0.98;;
44694;SDS011;32845;59.422;17.930;2022-09-23T16:29:31;4.38;;;0.90;;
44694;SDS011;32845;59.422;17.930;2022-09-23T16:34:01;3.38;;;1.17;;
44694;SDS011;32845;59.422;17.930;2022-09-23T16:38:32;2.22;;;1.00;;
44694;SDS011;32845;59.422;17.930;2022-09-23T16:43:03;5.20;;;0.85;;
44694;SDS011;32845;59.422;17.930;2022-09-23T16:47:35;2.47;;;0.80;;
44694;SDS011;32845;59.422;17.930;2022-09-23T16:52:13;2.70;;;0.82;;
44694;SDS011;32845;59.422;17.930;2022-09-23T16:56:44;4.38;;;1.00;;
44694;SDS011;32845;59.422;17.930;2022-09-23T17:01:19;6.38;;;1.80;;
44694;SDS011;32845;59.422;17.930;2022-09-23T17:06:10;3.63;;;1.58;;
44694;SDS011;32845;59.422;17.930;2022-09-23T17:10:42;5.65;;;1.25;;
44694;SDS011;32845;59.422;17.930;2022-09-23T17:15:14;3.08;;;1.00;;
44694;SDS011;32845;59.422;17.930;2022-09-23T17:19:45;7.38;;;1.80;;
44694;SDS011;32845;59.422;17.930;2022-09-23T17:24:16;4.70;;;1.50;;
44694;SDS011;32845;59.422;17.930;2022-09-23T17:28:46;9.02;;;1.20;;
44694;SDS011;32845;59.422;17.930;2022-09-23T17:33:17;6.10;;;2.78;;
44694;SDS011;32845;59.422;17.930;2022-09-23T17:37:49;12.30;;;3.70;;
44694;SDS011;32845;59.422;17.930;2022-09-23T17:42:20;10.98;;;3.00;;
44694;SDS011;32845;59.422;17.930;2022-09-23T17:46:50;11.43;;;2.95;;
44694;SDS011;32845;59.422;17.930;2022-09-23T17:51:22;5.60;;;2.40;;
44694;SDS011;32845;59.422;17.930;2022-09-23T17:55:55;9.43;;;2.70;;
44694;SDS011;32845;59.422;17.930;2022-09-23T18:00:26;7.43;;;2.75;;
44694;SDS011;32845;59.422;17.930;2022-09-23T18:04:57;5.97;;;2.03;;
44694;SDS011;32845;59.422;17.930;2022-09-23T18:09:27;10.55;;;2.70;;
44694;SDS011;32845;59.422;17.930;2022-09-23T18:14:02;9.18;;;2.03;;
44694;SDS011;32845;59.422;17.930;2022-09-23T18:18:35;5.78;;;1.90;;
44694;SDS011;32845;59.422;17.930;2022-09-23T18:23:06;6.68;;;2.05;;
44694;SDS011;32845;59.422;17.930;2022-09-23T18:27:41;10.38;;;2.67;;
44694;SDS011;32845;59.422;17.930;2022-09-23T18:32:12;4.78;;;2.40;;
44694;SDS011;32845;59.422;17.930;2022-09-23T18:36:43;10.15;;;2.40;;
44694;SDS011;32845;59.422;17.930;2022-09-23T18:41:14;12.43;;;3.83;;
44694;SDS011;32845;59.422;17.930;2022-09-23T18:45:55;7.00;;;3.22;;
44694;SDS011;32845;59.422;17.930;2022-09-23T18:50:33;8.32;;;2.75;;
44694;SDS011;32845;59.422;17.930;2022-09-23T18:55:12;4.40;;;2.38;;
44694;SDS011;32845;59.422;17.930;2022-09-23T18:59:42;8.57;;;2.60;;
44694;SDS011;32845;59.422;17.930;2022-09-23T19:04:17;9.10;;;2.60;;
44694;SDS011;32845;59.422;17.930;2022-09-23T19:08:52;4.18;;;2.13;;
44694;SDS011;32845;59.422;17.930;2022-09-23T19:13:24;6.07;;;2.45;;
44694;SDS011;32845;59.422;17.930;2022-09-23T19:18:00;7.30;;;2.00;;
44694;SDS011;32845;59.422;17.930;2022-09-23T19:22:30;7.25;;;2.00;;
44694;SDS011;32845;59.422;17.930;2022-09-23T19:27:01;9.65;;;2.92;;
44694;SDS011;32845;59.422;17.930;2022-09-23T19:31:34;11.30;;;2.45;;
44694;SDS011;32845;59.422;17.930;2022-09-23T19:36:09;7.20;;;2.83;;
44694;SDS011;32845;59.422;17.930;2022-09-23T19:40:41;8.60;;;2.97;;
44694;SDS011;32845;59.422;17.930;2022-09-23T19:45:12;7.90;;;2.60;;
44694;SDS011;32845;59.422;17.930;2022-09-23T19:49:43;19.30;;;4.22;;
44694;SDS011;32845;59.422;17.930;2022-09-23T19:54:13;8.93;;;4.50;;
44694;SDS011;32845;59.422;17.930;2022-09-23T19:58:49;9.43;;;4.07;;
44694;SDS011;32845;59.422;17.930;2022-09-23T20:03:24;8.70;;;3.75;;
44694;SDS011;32845;59.422;17.930;2022-09-23T20:07:56;8.25;;;3.35;;
44694;SDS011;32845;59.422;17.930;2022-09-23T20:12:31;11.60;;;3.15;;
44694;SDS011;32845;59.422;17.930;2022-09-23T20:17:02;8.05;;;2.97;;
44694;SDS011;32845;59.422;17.930;2022-09-23T20:21:33;12.80;;;3.28;;
44694;SDS011;32845;59.422;17.930;2022-09-23T20:26:04;10.38;;;3.75;;
44694;SDS011;32845;59.422;17.930;2022-09-23T20:30:56;11.93;;;3.90;;
44694;SDS011;32845;59.422;17.930;2022-09-23T20:35:27;14.52;;;4.30;;
44694;SDS011;32845;59.422;17.930;2022-09-23T20:40:02;13.68;;;4.15;;
44694;SDS011;32845;59.422;17.930;2022-09-23T20:44:33;9.40;;;3.90;;
44694;SDS011;32845;59.422;17.930;2022-09-23T20:49:03;12.27;;;3.90;;
44694;SDS011;32845;59.422;17.930;2022-09-23T20:53:37;11.20;;;3.08;;
44694;SDS011;32845;59.422;17.930;2022-09-23T20:58:08;11.40;;;3.08;;
44694;SDS011;32845;59.422;17.930;2022-09-23T21:02:39;15.00;;;3.75;;
44694;SDS011;32845;59.422;17.930;2022-09-23T21:07:12;5.68;;;3.60;;
44694;SDS011;32845;59.422;17.930;2022-09-23T21:11:43;12.10;;;3.67;;
44694;SDS011;32845;59.422;17.930;2022-09-23T21:16:14;14.20;;;3.72;;
44694;SDS011;32845;59.422;17.930;2022-09-23T21:20:52;7.22;;;3.25;;
44694;SDS011;32845;59.422;17.930;2022-09-23T21:25:23;7.88;;;3.20;;
44694;SDS011;32845;59.422;17.930;2022-09-23T21:29:59;10.63;;;3.30;;
44694;SDS011;32845;59.422;17.930;2022-09-23T21:34:30;7.25;;;3.25;;
44694;SDS011;32845;59.422;17.930;2022-09-23T21:39:01;5.40;;;3.20;;
44694;SDS011;32845;59.422;17.930;2022-09-23T21:43:34;4.25;;;3.03;;
44694;SDS011;32845;59.422;17.930;2022-09-23T21:48:07;7.90;;;2.78;;
44694;SDS011;32845;59.422;17.930;2022-09-23T21:52:38;4.63;;;2.25;;
44694;SDS011;32845;59.422;17.930;2022-09-23T21:57:08;10.77;;;2.58;;
44694;SDS011;32845;59.422;17.930;2022-09-23T22:01:41;8.38;;;3.05;;
44694;SDS011;32845;59.422;17.930;2022-09-23T22:06:16;7.18;;;3.00;;
44694;SDS011;32845;59.422;17.930;2022-09-23T22:10:50;3.05;;;2.15;;
44694;SDS011;32845;59.422;17.930;2022-09-23T22:15:20;5.28;;;2.13;;
44694;SDS011;32845;59.422;17.930;2022-09-23T22:19:51;8.77;;;2.80;;
44694;SDS011;32845;59.422;17.930;2022-09-23T22:24:22;6.65;;;2.40;;
44694;SDS011;32845;59.422;17.930;2022-09-23T22:28:52;8.52;;;2.83;;
44694;SDS011;32845;59.422;17.930;2022-09-23T22:33:42;9.95;;;3.28;;
44694;SDS011;32845;59.422;17.930;2022-09-23T22:38:13;9.00;;;3.00;;
44694;SDS011;32845;59.422;17.930;2022-09-23T22:42:43;4.82;;;2.67;;
44694;SDS011;32845;59.422;17.930;2022-09-23T22:47:14;5.57;;;2.40;;
44694;SDS011;32845;59.422;17.930;2022-09-23T22:51:46;7.75;;;2.28;;
44694;SDS011;32845;59.422;17.930;2022-09-23T22:56:17;8.23;;;2.42;;
44694;SDS011;32845;59.422;17.930;2022-09-23T23:00:48;4.60;;;2.53;;
44694;SDS011;32845;59.422;17.930;2022-09-23T23:05:20;5.18;;;2.63;;
44694;SDS011;32845;59.422;17.930;2022-09-23T23:09:51;3.95;;;2.20;;
44694;SDS011;32845;59.422;17.930;2022-09-23T23:14:22;3.80;;;2.35;;
44694;SDS011;32845;59.422;17.930;2022-09-23T23:18:53;6.80;;;2.58;;
44694;SDS011;32845;59.422;17.930;2022-09-23T23:23:25;5.88;;;2.17;;
44694;SDS011;32845;59.422;17.930;2022-09-23T23:27:55;3.85;;;2.30;;
44694;SDS011;32845;59.422;17.930;2022-09-23T23:32:26;12.23;;;2.70;;
44694;SDS011;32845;59.422;17.930;2022-09-23T23:36:57;6.70;;;2.30;;
44694;SDS011;32845;59.422;17.930;2022-09-23T23:41:28;6.85;;;2.60;;
44694;SDS011;32845;59.422;17.930;2022-09-23T23:45:58;5.68;;;2.65;;
44694;SDS011;32845;59.422;17.930;2022-09-23T23:50:30;8.02;;;2.90;;
44694;SDS011;32845;59.422;17.930;2022-09-23T23:55:02;8.35;;;2.72;;
44694;SDS011;32845;59.422;17.930;2022-09-23T23:59:33;4.82;;;2.63;;
